createdAt,value
2019-03-08T00:03:01.564Z,6.87
2019-03-08T00:08:07.811Z,6.07
2019-03-08T00:13:14.239Z,4.00
2019-03-08T00:18:21.588Z,6.60
2019-03-08T00:23:28.593Z,5.07
2019-03-08T00:28:34.328Z,3.83
2019-03-08T00:33:41.016Z,4.33
2019-03-08T00:38:47.563Z,3.20
2019-03-08T00:43:53.719Z,2.47
2019-03-08T00:48:59.968Z,3.10
2019-03-08T00:54:06.790Z,4.30
2019-03-08T00:59:15.471Z,4.73
2019-03-08T01:04:21.453Z,3.77
2019-03-08T01:09:27.104Z,4.23
2019-03-08T01:14:33.209Z,4.67
2019-03-08T01:19:39.395Z,8.03
2019-03-08T01:24:45.571Z,3.40
2019-03-08T01:29:51.794Z,8.17
2019-03-08T01:35:01.771Z,6.47
2019-03-08T01:40:09.451Z,4.97
2019-03-08T01:45:16.734Z,3.43
2019-03-08T01:50:27.868Z,4.60
2019-03-08T01:55:35.409Z,7.53
2019-03-08T02:00:44.481Z,6.77
2019-03-08T02:05:53.909Z,6.03
2019-03-08T02:11:01.748Z,5.23
2019-03-08T02:16:08.327Z,6.07
2019-03-08T02:21:16.979Z,5.90
2019-03-08T02:26:27.435Z,3.60
2019-03-08T02:31:36.811Z,4.93
2019-03-08T02:36:43.859Z,4.00
2019-03-08T02:41:51.467Z,3.87
2019-03-08T02:46:58.931Z,4.63
2019-03-08T02:52:06.897Z,2.37
2019-03-08T02:57:13.064Z,4.23
2019-03-08T03:02:18.806Z,5.60
2019-03-08T03:07:25.921Z,6.63
2019-03-08T03:12:34.131Z,3.43
2019-03-08T03:17:40.184Z,5.10
2019-03-08T03:22:45.864Z,5.53
2019-03-08T03:27:52.694Z,3.70
2019-03-08T03:32:59.987Z,7.27
2019-03-08T03:38:06.431Z,5.17
2019-03-08T03:43:15.033Z,4.30
2019-03-08T03:48:22.108Z,2.50
2019-03-08T03:53:28.227Z,3.57
2019-03-08T03:58:34.038Z,2.00
2019-03-08T04:03:39.620Z,4.17
2019-03-08T04:08:46.150Z,4.37
2019-03-08T04:13:52.322Z,6.33
2019-03-08T04:18:58.828Z,6.13
2019-03-08T04:24:05.670Z,4.83
2019-03-08T04:29:11.436Z,3.40
2019-03-08T04:34:17.366Z,2.70
2019-03-08T04:39:25.125Z,5.53
2019-03-08T04:44:31.051Z,3.90
2019-03-08T04:49:38.024Z,5.20
2019-03-08T04:54:44.358Z,3.20
2019-03-08T04:59:50.054Z,2.87
2019-03-08T05:04:55.793Z,2.67
2019-03-08T05:10:01.466Z,5.07
2019-03-08T05:15:09.118Z,5.20
2019-03-08T05:20:14.945Z,5.07
2019-03-08T05:25:20.473Z,3.57
2019-03-08T05:30:26.807Z,2.97
2019-03-08T05:35:32.862Z,3.50
2019-03-08T05:40:40.065Z,3.03
2019-03-08T05:45:46.141Z,2.53
2019-03-08T05:50:51.868Z,3.27
2019-03-08T05:55:57.579Z,3.47
2019-03-08T06:01:04.370Z,4.80
2019-03-08T06:06:11.751Z,4.00
2019-03-08T06:11:17.327Z,4.57
2019-03-08T06:16:24.637Z,3.87
2019-03-08T06:21:31.340Z,3.60
2019-03-08T06:26:37.116Z,5.10
2019-03-08T06:31:42.717Z,7.50
2019-03-08T06:36:48.793Z,6.53
2019-03-08T06:41:54.916Z,3.43
2019-03-08T06:47:00.690Z,3.87
2019-03-08T06:52:06.247Z,3.43
2019-03-08T06:57:12.176Z,4.30
2019-03-08T07:02:19.483Z,4.43
2019-03-08T07:07:25.794Z,2.07
2019-03-08T07:12:33.085Z,1.67
2019-03-08T07:17:39.679Z,2.80
2019-03-08T07:22:58.856Z,4.33
2019-03-08T07:28:06.493Z,3.00
2019-03-08T07:33:16.861Z,2.93
2019-03-08T07:38:33.266Z,8.60
2019-03-08T07:43:43.769Z,2.97
2019-03-08T07:48:58.324Z,1.57
2019-03-08T07:54:11.747Z,2.47
2019-03-08T07:59:21.990Z,4.57
2019-03-08T08:04:42.828Z,5.30
2019-03-08T08:09:51.105Z,5.33
2019-03-08T08:15:14.849Z,5.73
2019-03-08T08:26:28.447Z,4.80
2019-03-08T08:31:37.632Z,4.60
2019-03-08T08:36:51.292Z,5.53
2019-03-08T08:42:00.167Z,3.73
2019-03-08T08:47:24.203Z,5.50
2019-03-08T08:52:31.459Z,5.53
2019-03-08T08:57:43.712Z,8.77
2019-03-08T09:03:07.845Z,4.67
2019-03-08T09:08:25.913Z,6.70
2019-03-08T09:13:35.924Z,7.00
2019-03-08T09:18:52.993Z,6.17
2019-03-08T09:24:12.151Z,3.77
2019-03-08T09:29:20.716Z,4.23
2019-03-08T09:34:46.430Z,6.40
2019-03-08T09:39:58.254Z,7.07
2019-03-08T09:45:11.717Z,8.10
2019-03-08T09:50:20.411Z,4.30
2019-03-08T09:55:27.951Z,4.50
2019-03-08T10:00:45.359Z,6.10
2019-03-08T10:06:02.830Z,8.67
2019-03-08T10:11:13.181Z,7.80
2019-03-08T10:16:20.767Z,7.23
2019-03-08T10:21:45.023Z,7.40
2019-03-08T10:27:08.010Z,6.43
2019-03-08T10:32:17.191Z,4.63
2019-03-08T10:37:37.866Z,6.20
2019-03-08T10:42:46.963Z,5.00
2019-03-08T10:47:56.467Z,5.60
2019-03-08T10:53:08.918Z,5.40
2019-03-08T10:58:27.846Z,3.43
2019-03-08T11:03:37.880Z,4.00
2019-03-08T11:08:45.676Z,7.97
2019-03-08T11:14:02.008Z,5.50
2019-03-08T11:19:15.373Z,7.27
2019-03-08T11:24:22.965Z,7.27
2019-03-08T11:29:37.359Z,8.57
2019-03-08T11:34:51.929Z,8.47
2019-03-08T11:39:55.608Z,8.20
2019-03-08T11:45:19.594Z,7.50
2019-03-08T11:50:43.752Z,8.23
2019-03-08T11:55:52.623Z,9.87
2019-03-08T12:01:05.962Z,7.73
2019-03-08T12:06:22.337Z,7.80
2019-03-08T12:11:30.487Z,11.03
2019-03-08T12:16:57.147Z,9.70
2019-03-08T12:22:10.985Z,9.20
2019-03-08T12:27:35.568Z,10.30
2019-03-08T12:32:55.521Z,12.13
2019-03-08T12:38:06.641Z,11.03
2019-03-08T12:43:23.535Z,7.90
2019-03-08T12:48:47.244Z,6.47
2019-03-08T12:54:09.645Z,10.10
2019-03-08T12:59:23.870Z,17.70
2019-03-08T13:04:31.904Z,13.87
2019-03-08T13:09:43.292Z,10.10
2019-03-08T13:14:50.304Z,18.03
2019-03-08T13:19:56.365Z,9.80
2019-03-08T13:25:02.828Z,11.57
2019-03-08T13:30:15.067Z,11.57
2019-03-08T13:35:21.398Z,15.37
2019-03-08T13:40:27.178Z,12.87
2019-03-08T13:45:34.729Z,9.97
2019-03-08T13:50:41.187Z,9.83
2019-03-08T13:55:47.909Z,9.70
2019-03-08T14:00:56.048Z,11.43
2019-03-08T14:06:02.599Z,15.23
2019-03-08T14:11:10.011Z,12.47
2019-03-08T14:16:18.406Z,8.50
2019-03-08T14:21:24.329Z,15.00
2019-03-08T14:26:31.834Z,10.63
2019-03-08T14:31:49.235Z,8.50
2019-03-08T14:36:54.642Z,10.73
2019-03-08T14:42:19.319Z,11.73
2019-03-08T14:47:29.370Z,15.17
2019-03-08T14:52:35.696Z,11.67
2019-03-08T14:57:42.131Z,15.07
2019-03-08T15:02:48.679Z,6.57
2019-03-08T15:07:55.188Z,15.60
2019-03-08T15:13:01.474Z,9.63
2019-03-08T15:18:09.677Z,15.70
2019-03-08T15:23:17.126Z,18.87
2019-03-08T15:28:27.161Z,9.93
2019-03-08T15:33:35.632Z,8.63
2019-03-08T15:38:45.263Z,8.10
2019-03-08T15:43:52.742Z,9.33
2019-03-08T15:49:00.497Z,13.63
2019-03-08T15:54:07.942Z,15.77
2019-03-08T15:59:14.161Z,9.63
2019-03-08T16:04:21.104Z,10.17
2019-03-08T16:09:30.410Z,11.07
2019-03-08T16:14:35.993Z,15.67
2019-03-08T16:19:44.353Z,15.63
2019-03-08T16:24:51.487Z,8.93
2019-03-08T16:30:02.999Z,9.20
2019-03-08T16:35:07.812Z,13.03
2019-03-08T16:40:17.981Z,13.67
2019-03-08T16:45:31.079Z,12.60
2019-03-08T16:50:40.279Z,12.20
2019-03-08T16:55:50.283Z,15.40
2019-03-08T17:01:06.990Z,9.87
2019-03-08T17:06:31.478Z,13.97
2019-03-08T17:11:38.994Z,13.80
2019-03-08T17:16:56.699Z,12.93
2019-03-08T17:22:03.912Z,11.20
2019-03-08T17:27:13.290Z,15.70
2019-03-08T17:32:21.764Z,16.37
2019-03-08T17:37:36.696Z,16.20
2019-03-08T17:42:49.903Z,25.03
2019-03-08T17:48:04.335Z,22.47
2019-03-08T17:53:28.301Z,15.27
2019-03-08T17:58:35.741Z,15.20
2019-03-08T18:03:45.767Z,20.10
2019-03-08T18:08:55.894Z,22.03
2019-03-08T18:14:20.250Z,12.87
2019-03-08T18:19:30.352Z,16.27
2019-03-08T18:24:54.487Z,16.07
2019-03-08T18:30:03.887Z,20.03
2019-03-08T18:35:14.835Z,19.20
2019-03-08T18:40:28.923Z,17.30
2019-03-08T18:45:43.042Z,24.03
2019-03-08T18:50:55.330Z,14.33
2019-03-08T18:56:04.061Z,18.30
2019-03-08T19:01:28.112Z,15.83
2019-03-08T19:06:39.180Z,14.93
2019-03-08T19:11:59.150Z,13.27
2019-03-08T19:17:06.540Z,18.23
2019-03-08T19:22:30.960Z,16.70
2019-03-08T19:27:44.860Z,15.77
2019-03-08T19:33:04.027Z,18.30
2019-03-08T19:38:17.179Z,17.50
2019-03-08T19:43:30.621Z,19.53
2019-03-08T19:48:46.637Z,14.13
2019-03-08T19:54:10.565Z,20.23
2019-03-08T19:59:33.957Z,20.67
2019-03-08T20:04:42.056Z,20.13
2019-03-08T20:10:06.512Z,14.00
2019-03-08T20:15:29.448Z,16.77
2019-03-08T20:20:56.945Z,13.13
2019-03-08T20:26:10.786Z,16.27
2019-03-08T20:31:18.667Z,13.27
2019-03-08T20:36:39.977Z,14.23
2019-03-08T20:41:56.880Z,15.20
2019-03-08T20:47:04.915Z,12.63
2019-03-08T20:52:10.566Z,20.10
2019-03-08T20:57:18.652Z,12.83
2019-03-08T21:02:24.302Z,17.43
2019-03-08T21:07:30.520Z,14.03
2019-03-08T21:12:36.090Z,14.97
2019-03-08T21:17:43.756Z,16.07
2019-03-08T21:22:50.009Z,13.67
2019-03-08T21:27:56.241Z,13.30
2019-03-08T21:33:02.409Z,18.53
2019-03-08T21:38:09.234Z,17.67
2019-03-08T21:43:15.204Z,10.73
2019-03-08T21:48:21.581Z,11.80
2019-03-08T21:53:27.502Z,14.17
2019-03-08T21:58:34.961Z,14.13
2019-03-08T22:03:41.100Z,14.23
2019-03-08T22:08:49.436Z,18.33
2019-03-08T22:13:55.383Z,17.77
2019-03-08T22:19:01.818Z,13.90
2019-03-08T22:24:13.470Z,13.03
2019-03-08T22:29:15.249Z,13.50
2019-03-08T22:34:21.254Z,16.67
2019-03-08T22:39:27.037Z,12.27
2019-03-08T22:44:32.959Z,15.17
2019-03-08T22:49:39.240Z,12.73
2019-03-08T22:54:44.842Z,10.10
2019-03-08T22:59:50.441Z,9.67
2019-03-08T23:04:56.995Z,17.13
2019-03-08T23:10:03.308Z,13.40
2019-03-08T23:15:09.610Z,11.70
2019-03-08T23:20:16.042Z,10.80
2019-03-08T23:25:21.677Z,11.83
2019-03-08T23:30:28.657Z,11.80
2019-03-08T23:35:35.195Z,13.53
2019-03-08T23:40:41.136Z,15.17
2019-03-08T23:45:47.037Z,16.13
2019-03-08T23:50:52.670Z,15.20
2019-03-08T23:55:58.316Z,13.03
